Time;durP1;ratioP1;P1;durP2;ratioP2;P2;SDS_P1;SDS_P2;PMS_P1;PMS_P2;Temp;Humidity;BMP_temperature;BMP_pressure;BME280_temperature;BME280_humidity;BME280_pressure;Samples;Min_cycle;Max_cycle;Signal;HPM_P1;HPM_P2
2023/04/21 00:00:44;;;;;;;7.30;6.60;;;;;;;4.30;100.00;96195.31;5046162;28;20203;-59
2023/04/21 00:03:10;;;;;;;7.17;6.47;;;;;;;4.37;100.00;96188.66;5045936;28;20207;-58
2023/04/21 00:05:41;;;;;;;7.33;6.70;;;;;;;4.46;100.00;96195.81;5046412;28;20218;-58
2023/04/21 00:08:07;;;;;;;7.13;6.53;;;;;;;4.51;100.00;96191.06;5046155;28;20196;-58
2023/04/21 00:10:36;;;;;;;7.57;6.93;;;;;;;4.52;100.00;96187.50;5045765;28;20215;-57
2023/04/21 00:13:03;;;;;;;7.47;6.77;;;;;;;4.57;100.00;96180.09;5044824;28;20239;-58
2023/04/21 00:15:30;;;;;;;7.27;6.67;;;;;;;4.57;100.00;96179.28;5044939;28;20207;-57
2023/04/21 00:17:57;;;;;;;8.30;7.43;;;;;;;4.63;100.00;96174.41;5043864;28;20644;-58
2023/04/21 00:20:25;;;;;;;8.17;7.47;;;;;;;4.70;100.00;96167.75;5045414;28;20196;-58
2023/04/21 00:22:52;;;;;;;8.53;7.73;;;;;;;4.79;100.00;96169.63;5045051;28;20203;-57
2023/04/21 00:25:18;;;;;;;8.90;7.77;;;;;;;4.84;100.00;96167.50;5046821;28;20222;-58
2023/04/21 00:27:46;;;;;;;9.07;8.17;;;;;;;4.92;100.00;96165.09;5046290;28;20238;-57
2023/04/21 00:30:13;;;;;;;9.63;8.73;;;;;;;4.95;100.00;96158.81;5046863;28;20211;-59
2023/04/21 00:32:39;;;;;;;9.97;9.07;;;;;;;5.01;100.00;96167.00;5046043;28;20214;-59
2023/04/21 00:35:06;;;;;;;16.97;15.17;;;;;;;5.04;100.00;96158.06;5045982;28;20231;-58
2023/04/21 00:37:33;;;;;;;10.37;9.23;;;;;;;5.07;100.00;96146.50;5045238;28;20200;-58
2023/04/21 00:39:59;;;;;;;11.10;9.73;;;;;;;5.10;100.00;96152.34;5048583;28;20203;-59
2023/04/21 00:42:26;;;;;;;10.90;9.90;;;;;;;5.14;100.00;96147.69;5046793;28;20195;-59
2023/04/21 00:44:54;;;;;;;10.17;9.27;;;;;;;5.16;100.00;96136.16;5048848;28;20621;-59
2023/04/21 00:47:20;;;;;;;10.47;9.47;;;;;;;5.20;100.00;96148.06;5044867;28;20291;-60
2023/04/21 00:49:47;;;;;;;10.40;9.37;;;;;;;5.25;100.00;96150.28;5046958;28;20884;-59
2023/04/21 00:52:14;;;;;;;10.03;9.13;;;;;;;5.26;100.00;96149.34;5046049;28;21520;-60
2023/04/21 00:54:40;;;;;;;11.07;10.03;;;;;;;5.25;100.00;96155.53;5045239;28;20253;-60
2023/04/21 00:57:09;;;;;;;11.60;10.50;;;;;;;5.23;100.00;96150.44;5047474;28;20211;-60
2023/04/21 00:59:36;;;;;;;11.93;10.83;;;;;;;5.26;100.00;96155.41;5047675;28;20282;-60
2023/04/21 01:02:04;;;;;;;11.57;10.47;;;;;;;5.30;100.00;96150.75;5055519;28;20685;-61
2023/04/21 01:04:34;;;;;;;13.47;12.17;;;;;;;5.34;100.00;96171.38;5059778;28;20274;-60
2023/04/21 01:07:01;;;;;;;14.87;13.37;;;;;;;5.30;100.00;96175.19;5058710;28;20192;-59
2023/04/21 01:09:27;;;;;;;14.60;13.10;;;;;;;5.32;100.00;96173.28;5056034;28;20220;-61
2023/04/21 01:12:02;;;;;;;14.70;13.20;;;;;;;5.29;100.00;96167.44;5054735;28;20234;-59
2023/04/21 01:14:28;;;;;;;14.33;12.93;;;;;;;5.24;100.00;96159.13;5063183;28;20203;-62
2023/04/21 01:16:55;;;;;;;15.13;13.53;;;;;;;5.26;100.00;96167.69;5063412;28;20207;-58
2023/04/21 01:19:23;;;;;;;15.00;13.50;;;;;;;5.23;100.00;96166.16;5056924;28;20207;-59
2023/04/21 01:21:52;;;;;;;14.60;13.17;;;;;;;5.27;100.00;96169.38;5056405;28;20218;-59
2023/04/21 01:24:19;;;;;;;14.60;13.10;;;;;;;5.27;100.00;96164.13;5061833;28;20200;-61
2023/04/21 01:26:48;;;;;;;13.90;12.57;;;;;;;5.29;100.00;96160.41;5058673;28;20204;-60
2023/04/21 01:29:14;;;;;;;14.73;13.33;;;;;;;5.23;100.00;96163.53;5055589;28;20206;-61
2023/04/21 01:31:41;;;;;;;14.10;12.77;;;;;;;5.23;100.00;96157.44;5052031;28;20230;-59
2023/04/21 01:34:08;;;;;;;13.93;12.53;;;;;;;5.29;100.00;96167.44;5047630;28;20676;-60
2023/04/21 01:36:35;;;;;;;14.10;12.70;;;;;;;5.30;100.00;96169.13;5046342;28;20200;-59
2023/04/21 01:39:04;;;;;;;15.70;14.10;;;;;;;5.30;100.00;96158.63;5044679;28;20233;-58
2023/04/21 01:41:30;;;;;;;17.53;15.73;;;;;;;5.20;100.00;96160.31;5047736;28;20674;-59
2023/04/21 01:43:57;;;;;;;16.60;15.00;;;;;;;5.17;100.00;96157.94;5045080;28;20204;-59
2023/04/21 01:46:24;;;;;;;15.97;14.33;;;;;;;5.19;100.00;96166.50;5044433;28;20230;-59
2023/04/21 01:48:50;;;;;;;14.60;13.10;;;;;;;5.19;100.00;96148.16;5042905;28;20265;-59
2023/04/21 01:51:22;;;;;;;14.87;12.53;;;;;;;5.23;100.00;96152.22;5042851;28;20210;-58
2023/04/21 01:53:50;;;;;;;15.67;12.70;;;;;;;5.25;100.00;96145.88;5044002;28;20200;-59
2023/04/21 01:56:18;;;;;;;15.33;13.77;;;;;;;5.25;100.00;96148.50;5045342;28;20202;-58
2023/04/21 01:58:44;;;;;;;14.30;12.90;;;;;;;5.29;100.00;96143.84;5044438;28;20203;-59
2023/04/21 02:01:11;;;;;;;15.33;13.73;;;;;;;5.27;100.00;96164.13;5045939;28;20208;-59
2023/04/21 02:03:37;;;;;;;16.33;13.13;;;;;;;5.20;100.00;96162.94;5046421;28;20203;-62
2023/04/21 02:06:04;;;;;;;14.50;13.10;;;;;;;5.22;100.00;96167.09;5048776;28;20196;-59
2023/04/21 02:08:31;;;;;;;15.47;13.87;;;;;;;5.20;100.00;96176.06;5056509;28;20199;-59
2023/04/21 02:10:57;;;;;;;14.90;13.40;;;;;;;5.24;100.00;96180.94;5053423;28;20204;-59
2023/04/21 02:13:26;;;;;;;15.40;13.90;;;;;;;5.27;100.00;96170.19;5046418;28;20237;-58
2023/04/21 02:15:53;;;;;;;14.43;13.03;;;;;;;5.30;100.00;96180.44;5047651;28;20207;-58
2023/04/21 02:18:20;;;;;;;14.00;12.70;;;;;;;5.24;100.00;96186.19;5049313;28;20203;-59
2023/04/21 02:20:47;;;;;;;14.20;12.70;;;;;;;5.26;100.00;96183.41;5047832;28;20204;-60
2023/04/21 02:23:13;;;;;;;14.70;13.23;;;;;;;5.27;100.00;96183.31;5045721;28;20215;-60
2023/04/21 02:25:40;;;;;;;14.10;12.67;;;;;;;5.26;100.00;96183.41;5045957;28;20540;-59
2023/04/21 02:28:06;;;;;;;15.27;13.63;;;;;;;5.20;100.00;96182.13;5041902;28;20214;-59
2023/04/21 02:30:35;;;;;;;14.93;13.33;;;;;;;5.20;100.00;96174.25;5042665;28;20206;-60
2023/04/21 02:33:01;;;;;;;15.20;13.67;;;;;;;5.19;100.00;96177.84;5041600;28;20254;-58
2023/04/21 02:35:28;;;;;;;14.70;13.17;;;;;;;5.13;100.00;96167.84;5042204;28;20229;-59
2023/04/21 02:37:54;;;;;;;14.43;12.93;;;;;;;5.08;100.00;96163.91;5043374;28;20211;-60
2023/04/21 02:40:21;;;;;;;15.67;12.97;;;;;;;5.08;100.00;96151.63;5042940;28;20195;-59
2023/04/21 02:42:47;;;;;;;14.03;12.63;;;;;;;5.09;100.00;96152.47;5042980;28;20233;-60
2023/04/21 02:45:13;;;;;;;13.17;11.80;;;;;;;5.15;100.00;96154.59;5042092;28;20203;-58
2023/04/21 02:47:41;;;;;;;13.47;12.07;;;;;;;5.10;100.00;96156.78;5044026;28;20211;-60
2023/04/21 02:50:09;;;;;;;14.00;12.60;;;;;;;5.10;100.00;96160.19;5041294;28;20206;-58
2023/04/21 02:52:36;;;;;;;15.17;13.67;;;;;;;5.05;100.00;96153.66;5043112;28;20322;-58
2023/04/21 02:55:03;;;;;;;14.70;13.20;;;;;;;5.06;100.00;96145.69;5042772;28;20238;-59
2023/04/21 02:57:29;;;;;;;14.63;13.13;;;;;;;5.09;100.00;96150.69;5042426;28;20289;-58
2023/04/21 02:59:56;;;;;;;15.17;13.57;;;;;;;5.09;100.00;96155.09;5041638;28;20286;-58
2023/04/21 03:02:22;;;;;;;15.90;14.20;;;;;;;5.07;100.00;96149.13;5041952;28;20195;-59
2023/04/21 03:04:50;;;;;;;14.97;13.47;;;;;;;5.12;100.00;96150.44;5041955;28;20203;-57
2023/04/21 03:07:17;;;;;;;15.40;13.80;;;;;;;5.11;100.00;96163.66;5040960;28;20207;-59
2023/04/21 03:09:43;;;;;;;15.30;13.80;;;;;;;5.15;100.00;96167.69;5042203;28;20311;-59
2023/04/21 03:12:10;;;;;;;15.10;13.50;;;;;;;5.14;100.00;96169.50;5041348;28;20233;-60
2023/04/21 03:14:36;;;;;;;15.53;13.90;;;;;;;5.12;100.00;96162.72;5042006;28;20513;-59
2023/04/21 03:17:02;;;;;;;15.10;13.60;;;;;;;5.16;100.00;96169.38;5041305;28;20204;-60
2023/04/21 03:19:30;;;;;;;15.67;14.07;;;;;;;5.08;100.00;96172.59;5041671;28;20211;-60
2023/04/21 03:21:58;;;;;;;15.40;13.80;;;;;;;5.11;100.00;96163.66;5042187;28;20230;-60
2023/04/21 03:24:25;;;;;;;15.37;13.70;;;;;;;5.11;100.00;96161.03;5041864;28;20200;-59
2023/04/21 03:26:51;;;;;;;14.47;12.97;;;;;;;5.16;100.00;96156.28;5041555;28;20655;-58
2023/04/21 03:29:18;;;;;;;13.57;12.17;;;;;;;5.07;100.00;96157.00;5041351;28;20212;-58
2023/04/21 03:31:46;;;;;;;13.20;11.90;;;;;;;5.07;100.00;96139.47;5040930;28;20204;-60
2023/04/21 03:34:13;;;;;;;11.93;10.73;;;;;;;5.05;100.00;96143.19;5040342;28;20231;-59
2023/04/21 03:36:39;;;;;;;12.17;10.87;;;;;;;5.07;100.00;96136.03;5041982;28;20273;-59
2023/04/21 03:39:07;;;;;;;12.33;11.03;;;;;;;5.06;100.00;96144.84;5041655;28;20204;-60
2023/04/21 03:41:34;;;;;;;12.10;10.90;;;;;;;5.11;100.00;96153.19;5042246;28;20196;-59
2023/04/21 03:44:00;;;;;;;12.07;10.87;;;;;;;5.08;100.00;96143.78;5040170;28;20779;-58
2023/04/21 03:46:27;;;;;;;10.53;9.53;;;;;;;5.12;100.00;96149.59;5041507;28;20215;-60
2023/04/21 03:48:53;;;;;;;10.67;9.63;;;;;;;5.18;100.00;96143.88;5040039;28;20632;-60
2023/04/21 03:51:20;;;;;;;10.83;9.83;;;;;;;5.10;100.00;96146.28;5041941;28;20530;-60
2023/04/21 03:53:46;;;;;;;10.13;9.23;;;;;;;5.06;100.00;96144.84;5040617;28;20722;-60
2023/04/21 03:56:14;;;;;;;9.77;8.87;;;;;;;5.09;100.00;96144.63;5040691;28;20579;-60
2023/04/21 03:58:40;;;;;;;10.53;9.53;;;;;;;5.06;100.00;96144.84;5039953;28;20655;-60
2023/04/21 04:01:07;;;;;;;10.60;9.60;;;;;;;5.04;100.00;96142.34;5042893;28;20538;-60
2023/04/21 04:03:34;;;;;;;10.03;9.20;;;;;;;5.05;100.00;96148.44;5044872;28;20218;-60
2023/04/21 04:06:02;;;;;;;10.83;9.83;;;;;;;5.07;100.00;96149.97;5044882;28;20299;-58
2023/04/21 04:08:29;;;;;;;10.20;9.30;;;;;;;5.03;100.00;96146.75;5045305;28;20295;-59
2023/04/21 04:10:55;;;;;;;10.50;9.50;;;;;;;5.02;100.00;96144.28;5045062;28;20207;-60
2023/04/21 04:13:23;;;;;;;10.87;9.80;;;;;;;5.10;100.00;96141.03;5043990;28;20227;-59
2023/04/21 04:15:50;;;;;;;11.87;10.03;;;;;;;5.07;100.00;96142.09;5044440;28;20564;-59
2023/04/21 04:18:16;;;;;;;11.70;10.60;;;;;;;5.06;100.00;96131.75;5044896;28;20207;-58
2023/04/21 04:20:42;;;;;;;11.13;10.13;;;;;;;5.07;100.00;96130.78;5044684;28;20207;-58
2023/04/21 04:23:09;;;;;;;11.80;10.70;;;;;;;5.09;100.00;96134.13;5044508;28;20203;-58
2023/04/21 04:25:36;;;;;;;11.30;10.10;;;;;;;5.14;100.00;96143.28;5043790;28;20223;-59
2023/04/21 04:28:04;;;;;;;10.47;9.47;;;;;;;5.17;100.00;96144.84;5043699;28;20214;-60
2023/04/21 04:30:32;;;;;;;11.67;10.57;;;;;;;5.15;100.00;96142.34;5043566;28;20207;-59
2023/04/21 04:32:58;;;;;;;12.43;11.23;;;;;;;5.15;100.00;96138.88;5044351;28;20227;-58
2023/04/21 04:35:25;;;;;;;12.20;11.10;;;;;;;5.14;100.00;96142.44;5043827;28;20239;-59
2023/04/21 04:37:53;;;;;;;12.07;10.87;;;;;;;5.24;100.00;96139.00;5044014;28;20207;-59
2023/04/21 04:40:21;;;;;;;12.70;11.50;;;;;;;5.29;100.00;96141.22;5044653;28;20199;-59
2023/04/21 04:42:47;;;;;;;11.83;10.73;;;;;;;5.30;100.00;96137.66;5043901;28;20546;-58
2023/04/21 04:45:15;;;;;;;11.20;10.13;;;;;;;5.33;100.00;96147.91;5043571;28;20199;-59
2023/04/21 04:47:44;;;;;;;11.53;10.43;;;;;;;5.35;100.00;96154.66;5043976;28;20226;-59
2023/04/21 04:50:11;;;;;;;12.03;10.83;;;;;;;5.35;100.00;96149.44;5043961;28;20207;-58
2023/04/21 04:52:37;;;;;;;11.33;10.27;;;;;;;5.36;100.00;96142.41;5044238;28;20228;-58
2023/04/21 04:55:04;;;;;;;11.50;10.30;;;;;;;5.30;100.00;96138.50;5044906;28;20204;-59
2023/04/21 04:57:31;;;;;;;11.07;10.00;;;;;;;5.32;100.00;96141.81;5043961;28;20211;-59
2023/04/21 04:59:59;;;;;;;11.07;10.07;;;;;;;5.32;100.00;96147.06;5043516;28;20634;-59
2023/04/21 05:02:25;;;;;;;10.03;9.13;;;;;;;5.28;100.00;96150.06;5043689;28;20628;-58
2023/04/21 05:04:53;;;;;;;9.87;8.83;;;;;;;5.16;100.00;96148.41;5042741;28;20654;-58
2023/04/21 05:07:19;;;;;;;10.83;9.83;;;;;;;5.18;100.00;96152.56;5044822;28;20208;-58
2023/04/21 05:09:47;;;;;;;11.23;9.17;;;;;;;5.17;100.00;96147.47;5043532;28;20304;-59
2023/04/21 05:12:14;;;;;;;11.17;10.10;;;;;;;5.29;100.00;96152.56;5043283;28;20204;-58
2023/04/21 05:14:40;;;;;;;11.10;10.10;;;;;;;5.38;100.00;96156.22;5044716;28;20234;-60
2023/04/21 05:17:07;;;;;;;10.43;9.53;;;;;;;5.46;100.00;96169.53;5044505;28;20215;-59
2023/04/21 05:19:35;;;;;;;10.20;9.30;;;;;;;5.54;100.00;96175.00;5042821;28;20700;-60
2023/04/21 05:22:05;;;;;;;10.93;9.93;;;;;;;5.56;100.00;96169.66;5044207;28;20221;-60
2023/04/21 05:24:31;;;;;;;10.63;9.57;;;;;;;5.53;100.00;96175.97;5056790;28;20207;-60
2023/04/21 05:26:58;;;;;;;11.33;10.23;;;;;;;5.58;100.00;96176.44;5064503;28;20195;-59
2023/04/21 05:29:24;;;;;;;11.03;9.93;;;;;;;5.63;100.00;96176.06;5047411;28;20204;-60
2023/04/21 05:31:51;;;;;;;10.93;9.83;;;;;;;5.64;100.00;96177.72;5045614;28;20276;-58
2023/04/21 05:34:17;;;;;;;11.63;10.53;;;;;;;5.57;100.00;96187.03;5044430;28;20236;-58
2023/04/21 05:36:45;;;;;;;11.63;10.53;;;;;;;5.63;100.00;96186.56;5044346;28;20223;-58
2023/04/21 05:39:13;;;;;;;12.73;11.17;;;;;;;5.68;100.00;96179.97;5047178;28;20207;-60
2023/04/21 05:41:39;;;;;;;12.13;10.93;;;;;;;5.70;100.00;96188.56;5056482;28;20210;-60
2023/04/21 05:44:06;;;;;;;11.47;10.37;;;;;;;5.73;100.00;96183.06;5059903;28;20199;-61
2023/04/21 05:46:33;;;;;;;11.43;10.33;;;;;;;5.67;100.00;96187.97;5046263;28;20208;-58
2023/04/21 05:49:01;;;;;;;11.10;10.00;;;;;;;5.74;100.00;96187.34;5046463;28;21270;-60
2023/04/21 05:51:27;;;;;;;11.97;10.77;;;;;;;5.76;100.00;96182.81;5046074;28;20200;-60
2023/04/21 05:53:54;;;;;;;12.63;11.43;;;;;;;5.73;100.00;96175.19;5042599;28;20223;-60
2023/04/21 05:56:21;;;;;;;12.27;11.10;;;;;;;5.80;100.00;96172.91;5043642;28;20218;-59
2023/04/21 05:58:48;;;;;;;12.37;11.17;;;;;;;5.83;100.00;96177.88;5049999;28;20214;-59
2023/04/21 06:01:15;;;;;;;11.57;10.50;;;;;;;5.82;100.00;96176.22;5051914;28;20223;-59
2023/04/21 06:03:41;;;;;;;11.10;10.10;;;;;;;5.82;100.00;96178.84;5053106;28;20195;-58
2023/04/21 06:06:13;;;;;;;12.03;10.90;;;;;;;5.89;100.00;96180.88;5045054;28;20218;-58
2023/04/21 06:08:40;;;;;;;12.07;10.93;;;;;;;5.90;100.00;96184.34;5043567;28;20291;-59
2023/04/21 06:11:06;;;;;;;12.07;10.87;;;;;;;5.95;100.00;96180.38;5042444;28;20539;-57
2023/04/21 06:13:34;;;;;;;12.13;10.93;;;;;;;5.99;100.00;96175.69;5041412;28;20235;-58
2023/04/21 06:16:01;;;;;;;11.87;10.77;;;;;;;6.10;100.00;96174.81;5042460;28;20210;-60
2023/04/21 06:18:27;;;;;;;11.50;10.33;;;;;;;6.17;100.00;96181.22;5042614;28;20290;-60
2023/04/21 06:20:54;;;;;;;11.53;10.43;;;;;;;6.18;100.00;96170.59;5042540;28;20209;-60
2023/04/21 06:23:21;;;;;;;11.37;10.27;;;;;;;6.26;100.00;96175.22;5043155;28;20222;-59
2023/04/21 06:26:03;;;;;;;11.97;10.87;;;;;;;6.35;100.00;96174.44;5041933;28;20207;-58
2023/04/21 06:28:29;;;;;;;10.63;9.63;;;;;;;6.57;100.00;96174.28;5041630;28;20195;-59
2023/04/21 06:30:57;;;;;;;11.43;10.33;;;;;;;6.54;100.00;96166.69;5043336;28;20207;-59
2023/04/21 06:33:23;;;;;;;10.47;9.50;;;;;;;6.44;100.00;96165.78;5042551;28;20896;-60
2023/04/21 06:35:50;;;;;;;10.27;9.27;;;;;;;6.41;100.00;96155.56;5042293;28;20232;-60
2023/04/21 06:38:16;;;;;;;10.70;9.70;;;;;;;6.45;100.00;96156.94;5041005;28;20264;-59
2023/04/21 06:40:42;;;;;;;14.17;11.00;;;;;;;6.52;100.00;96155.44;5041678;28;20207;-61
2023/04/21 06:43:09;;;;;;;12.63;10.90;;;;;;;6.53;100.00;96159.75;5041873;28;20229;-58
2023/04/21 06:45:35;;;;;;;12.67;11.37;;;;;;;6.60;100.00;96158.28;5042142;28;20200;-59
2023/04/21 06:48:04;;;;;;;11.47;10.37;;;;;;;6.55;100.00;96167.53;5040689;28;20555;-58
2023/04/21 06:50:30;;;;;;;10.70;9.70;;;;;;;6.66;100.00;96172.69;5043005;28;20207;-59
2023/04/21 06:52:57;;;;;;;10.80;9.80;;;;;;;6.49;100.00;96163.59;5042027;28;20229;-58
2023/04/21 06:55:23;;;;;;;10.00;9.00;;;;;;;6.60;100.00;96162.69;5041223;28;20204;-59
2023/04/21 06:57:54;;;;;;;10.00;8.90;;;;;;;6.62;100.00;96169.50;5041644;28;20211;-60
2023/04/21 07:00:21;;;;;;;10.30;9.40;;;;;;;6.59;100.00;96166.31;5041695;28;20199;-58
2023/04/21 07:02:47;;;;;;;11.33;10.23;;;;;;;6.48;100.00;96157.50;5041682;28;20211;-58
2023/04/21 07:05:16;;;;;;;10.63;9.63;;;;;;;6.51;100.00;96164.31;5041739;28;20204;-58
2023/04/21 07:07:43;;;;;;;9.50;8.67;;;;;;;6.48;100.00;96165.38;5042484;28;20222;-59
2023/04/21 07:10:10;;;;;;;9.97;9.07;;;;;;;6.60;100.00;96158.28;5041597;28;20220;-57
2023/04/21 07:12:36;;;;;;;10.27;9.27;;;;;;;6.55;100.00;96157.84;5041332;28;20619;-58
2023/04/21 07:15:05;;;;;;;9.90;9.00;;;;;;;6.50;100.00;96160.03;5041818;28;20668;-58
2023/04/21 07:17:31;;;;;;;9.53;8.63;;;;;;;6.57;100.00;96153.28;5039757;28;20199;-58
2023/04/21 07:19:58;;;;;;;11.10;10.03;;;;;;;6.59;100.00;96153.97;5040768;28;20203;-59
2023/04/21 07:22:26;;;;;;;9.77;8.97;;;;;;;6.67;100.00;96151.53;5041416;28;20199;-57
2023/04/21 07:24:52;;;;;;;10.50;9.50;;;;;;;6.70;100.00;96143.38;5042452;28;20204;-58
2023/04/21 07:27:19;;;;;;;11.43;10.33;;;;;;;6.80;100.00;96146.88;5041143;28;20203;-57
2023/04/21 07:29:46;;;;;;;11.87;10.67;;;;;;;6.73;100.00;96143.09;5041643;28;20214;-57
2023/04/21 07:32:12;;;;;;;12.40;11.20;;;;;;;6.59;100.00;96140.84;5041679;28;20532;-59
2023/04/21 07:34:39;;;;;;;12.50;10.87;;;;;;;6.61;100.00;96149.44;5041245;28;20231;-58
2023/04/21 07:37:06;;;;;;;12.47;11.17;;;;;;;6.76;100.00;96145.50;5045831;28;20211;-57
2023/04/21 07:39:34;;;;;;;12.63;11.43;;;;;;;6.89;100.00;96140.84;5046975;28;21302;-59
2023/04/21 07:42:00;;;;;;;18.33;11.63;;;;;;;6.96;100.00;96146.41;5045092;28;20203;-59
2023/04/21 07:44:28;;;;;;;15.87;11.67;;;;;;;7.09;100.00;96149.63;5045914;28;20512;-58
2023/04/21 07:46:54;;;;;;;11.40;10.30;;;;;;;7.19;100.00;96149.66;5047891;28;20559;-58
2023/04/21 07:49:21;;;;;;;11.13;10.03;;;;;;;7.28;100.00;96148.84;5053948;28;20195;-57
2023/04/21 07:51:47;;;;;;;11.77;10.77;;;;;;;7.31;100.00;96148.56;5070801;28;20191;-63
2023/04/21 07:54:13;;;;;;;11.87;10.67;;;;;;;7.24;100.00;96150.06;5066106;28;20222;-60
2023/04/21 07:56:41;;;;;;;12.13;10.83;;;;;;;7.24;100.00;96155.34;5056263;28;20195;-58
2023/04/21 07:59:08;;;;;;;12.67;10.77;;;;;;;7.33;100.00;96146.66;5056720;28;20275;-63
2023/04/21 08:01:34;;;;;;;11.80;10.57;;;;;;;7.40;100.00;96145.16;5050342;28;20211;-59
2023/04/21 08:04:01;;;;;;;10.93;9.90;;;;;;;7.41;100.00;96145.00;5046520;28;20196;-59
2023/04/21 08:06:27;;;;;;;11.73;10.63;;;;;;;7.51;100.00;96139.75;5047567;28;20222;-58
2023/04/21 08:08:54;;;;;;;12.00;10.60;;;;;;;7.69;100.00;96143.34;5045958;28;20201;-59
2023/04/21 08:11:21;;;;;;;12.83;11.53;;;;;;;7.75;100.00;96140.19;5046446;28;20233;-58
2023/04/21 08:13:50;;;;;;;11.13;10.03;;;;;;;7.88;100.00;96132.00;5045609;28;20215;-58
2023/04/21 08:16:16;;;;;;;10.97;9.97;;;;;;;7.98;100.00;96131.03;5046210;28;20199;-59
2023/04/21 08:18:43;;;;;;;11.83;10.63;;;;;;;8.17;100.00;96132.84;5046267;28;20269;-59
2023/04/21 08:21:10;;;;;;;10.67;9.67;;;;;;;8.41;100.00;96135.03;5045081;28;20203;-59
2023/04/21 08:23:36;;;;;;;10.50;9.53;;;;;;;8.53;100.00;96127.81;5046917;28;20516;-60
2023/04/21 08:26:03;;;;;;;11.10;10.10;;;;;;;8.63;100.00;96125.97;5046471;28;20290;-59
2023/04/21 08:28:29;;;;;;;10.60;9.70;;;;;;;8.52;100.00;96126.97;5044904;28;20218;-59
2023/04/21 08:30:57;;;;;;;10.17;9.17;;;;;;;8.66;100.00;96137.03;5045666;28;20269;-59
2023/04/21 08:33:23;;;;;;;11.47;10.27;;;;;;;8.68;100.00;96140.34;5044783;28;20227;-59
2023/04/21 08:35:50;;;;;;;10.60;9.70;;;;;;;8.73;100.00;96124.94;5044014;28;20242;-59
2023/04/21 08:38:17;;;;;;;9.90;9.00;;;;;;;8.62;100.00;96124.28;5044743;28;20215;-59
2023/04/21 08:40:43;;;;;;;10.13;9.23;;;;;;;8.76;100.00;96119.38;5045724;28;20279;-58
2023/04/21 08:43:10;;;;;;;10.30;9.30;;;;;;;8.73;100.00;96114.41;5045817;28;20296;-58
2023/04/21 08:45:36;;;;;;;10.43;9.53;;;;;;;8.56;100.00;96127.50;5047159;28;20206;-59
2023/04/21 08:48:05;;;;;;;10.47;9.57;;;;;;;8.58;100.00;96139.56;5043816;28;20214;-59
2023/04/21 08:50:32;;;;;;;10.47;9.57;;;;;;;8.74;100.00;96137.16;5045495;28;20599;-58
2023/04/21 08:52:59;;;;;;;10.07;9.07;;;;;;;8.74;100.00;96131.91;5045745;28;20204;-59
2023/04/21 08:55:28;;;;;;;10.43;9.53;;;;;;;8.76;100.00;96129.94;5045871;28;20670;-58
2023/04/21 08:57:54;;;;;;;10.17;9.27;;;;;;;8.88;100.00;96139.34;5043801;28;20204;-58
2023/04/21 09:00:21;;;;;;;10.97;9.97;;;;;;;9.01;100.00;96141.63;5045944;28;20207;-58
2023/04/21 09:02:55;;;;;;;10.13;9.13;;;;;;;9.29;100.00;96132.75;5046981;28;21437;-59
2023/04/21 09:05:24;;;;;;;10.00;9.10;;;;;;;9.37;100.00;96135.47;5048354;28;20199;-60
2023/04/21 09:07:51;;;;;;;9.63;8.83;;;;;;;9.31;100.00;96137.88;5046771;28;20210;-59
2023/04/21 09:10:22;;;;;;;9.43;8.50;;;;;;;9.12;100.00;96135.34;5048264;28;20215;-59
2023/04/21 09:12:51;;;;;;;9.97;8.77;;;;;;;9.34;100.00;96127.88;5045214;28;20219;-59
2023/04/21 09:15:17;;;;;;;12.27;9.23;;;;;;;9.59;100.00;96131.59;5043854;28;20610;-60
2023/04/21 09:17:45;;;;;;;11.70;10.60;;;;;;;9.87;100.00;96135.00;5042893;28;20200;-59
2023/04/21 09:20:14;;;;;;;10.03;9.13;;;;;;;10.15;99.81;96136.59;5043523;28;20214;-58
2023/04/21 09:22:42;;;;;;;10.97;9.97;;;;;;;10.31;98.50;96139.34;5045293;28;20204;-59
2023/04/21 09:25:08;;;;;;;10.73;9.83;;;;;;;10.50;96.47;96135.69;5048363;28;20810;-58
2023/04/21 09:27:36;;;;;;;9.93;9.03;;;;;;;10.71;92.01;96124.75;5046406;28;20208;-59
2023/04/21 09:30:04;;;;;;;9.50;8.60;;;;;;;10.90;93.73;96116.63;5043767;28;20207;-59
2023/04/21 09:32:36;;;;;;;9.10;8.40;;;;;;;11.27;91.23;96118.91;5043405;28;20208;-59
2023/04/21 09:35:02;;;;;;;8.80;8.10;;;;;;;11.74;88.52;96119.25;5059847;28;20237;-59
2023/04/21 09:37:32;;;;;;;9.50;8.60;;;;;;;11.84;89.43;96118.09;5062763;28;20303;-59
2023/04/21 09:40:00;;;;;;;9.17;8.37;;;;;;;11.92;88.58;96122.59;5044124;28;20199;-60
2023/04/21 09:42:29;;;;;;;9.03;8.20;;;;;;;12.17;86.32;96110.16;5043966;28;20348;-59
2023/04/21 09:44:55;;;;;;;8.80;7.87;;;;;;;11.93;85.73;96127.72;5042765;28;20200;-59
2023/04/21 09:47:22;;;;;;;8.40;7.70;;;;;;;12.05;86.84;96122.09;5042413;28;20633;-59
2023/04/21 09:49:51;;;;;;;7.93;7.33;;;;;;;12.53;83.82;96118.59;5042859;28;20199;-58
2023/04/21 09:52:19;;;;;;;7.80;7.20;;;;;;;12.96;85.21;96120.84;5051937;28;20628;-59
2023/04/21 09:54:50;;;;;;;7.70;7.00;;;;;;;13.41;80.77;96121.03;5061492;28;20238;-59
2023/04/21 09:57:22;;;;;;;7.70;7.10;;;;;;;13.36;77.97;96123.38;5064620;28;20198;-59
2023/04/21 09:59:54;;;;;;;7.70;6.90;;;;;;;13.59;77.97;96126.09;5043729;28;20228;-59
2023/04/21 10:02:26;;;;;;;7.33;6.73;;;;;;;14.10;80.94;96116.63;5042337;28;20223;-58
2023/04/21 10:04:53;;;;;;;6.90;6.40;;;;;;;14.16;78.01;96123.06;5042130;28;20262;-58
2023/04/21 10:07:19;;;;;;;7.25;6.75;;;;;;;14.27;75.06;96112.84;5042215;28;20218;-59
2023/04/21 10:09:48;;;;;;;7.85;7.28;;;;;;;14.49;77.19;96121.03;5042619;28;20219;-58
2023/04/21 10:12:15;;;;;;;8.70;7.90;;;;;;;14.77;74.80;96114.09;5042924;28;20203;-59
2023/04/21 10:14:43;;;;;;;8.00;7.35;;;;;;;14.80;77.63;96109.25;5043090;28;20236;-59
2023/04/21 10:17:10;;;;;;;8.68;7.97;;;;;;;14.78;74.65;96107.75;5042611;28;20215;-59
2023/04/21 10:19:39;;;;;;;7.35;6.82;;;;;;;15.10;71.32;96103.91;5043978;28;20195;-58
2023/04/21 10:22:07;;;;;;;8.25;7.55;;;;;;;14.85;72.40;96106.84;5042883;28;20203;-59
2023/04/21 10:24:38;;;;;;;7.87;7.00;;;;;;;14.95;71.00;96088.75;5044190;28;20249;-58
2023/04/21 10:27:04;;;;;;;7.47;6.88;;;;;;;14.80;71.41;96082.63;5042898;28;20223;-58
2023/04/21 10:29:32;;;;;;;7.30;6.80;;;;;;;15.15;72.51;96069.56;5044078;28;20264;-59
2023/04/21 10:32:00;;;;;;;7.85;7.15;;;;;;;14.96;70.67;96060.28;5042663;28;20203;-59
2023/04/21 10:34:34;;;;;;;7.35;6.80;;;;;;;15.66;69.44;96057.91;5042674;28;20574;-59
2023/04/21 10:37:18;;;;;;;9.23;8.35;;;;;;;15.67;70.51;96058.75;5042949;28;20570;-59
2023/04/21 10:39:49;;;;;;;11.15;8.85;;;;;;;16.02;69.35;96060.53;5043127;28;20203;-59
2023/04/21 10:42:23;;;;;;;8.63;7.97;;;;;;;15.82;66.30;96068.34;5042308;28;20852;-58
2023/04/21 10:45:00;;;;;;;7.45;6.88;;;;;;;15.77;68.82;96076.06;5043380;28;20191;-58
2023/04/21 10:47:30;;;;;;;7.65;7.05;;;;;;;16.43;68.44;96071.38;5041856;28;20582;-59
2023/04/21 10:49:57;;;;;;;8.95;8.15;;;;;;;15.90;69.69;96059.41;5043677;28;21426;-59
2023/04/21 10:52:31;;;;;;;9.23;8.40;;;;;;;15.59;69.15;96061.53;5042625;28;20207;-59
2023/04/21 10:55:11;;;;;;;11.35;8.27;;;;;;;15.67;70.56;96064.91;5041568;28;20307;-59
2023/04/21 10:57:37;;;;;;;8.10;7.40;;;;;;;15.56;66.55;96068.06;5043330;28;20212;-59
2023/04/21 11:00:06;;;;;;;8.15;7.45;;;;;;;15.79;68.53;96075.91;5041939;28;20210;-59
2023/04/21 11:02:35;;;;;;;8.07;7.47;;;;;;;15.82;69.31;96073.69;5042388;28;20286;-60
2023/04/21 11:05:02;;;;;;;8.50;7.80;;;;;;;15.34;71.04;96075.13;5042684;28;20203;-60
2023/04/21 11:07:29;;;;;;;8.88;7.97;;;;;;;15.25;70.60;96070.09;5042026;28;20226;-58
2023/04/21 11:09:57;;;;;;;7.88;7.28;;;;;;;15.33;71.64;96060.19;5041890;28;20214;-59
2023/04/21 11:12:27;;;;;;;7.15;6.55;;;;;;;15.02;72.13;96051.56;5046267;28;20200;-59
2023/04/21 11:14:54;;;;;;;9.60;7.50;;;;;;;15.08;72.56;96042.84;5045606;28;20221;-60
2023/04/21 11:17:22;;;;;;;8.45;7.78;;;;;;;15.27;70.94;96046.75;5045907;28;20198;-57
2023/04/21 11:19:50;;;;;;;8.45;7.75;;;;;;;15.50;71.82;96036.84;5046920;28;20191;-57
2023/04/21 11:22:17;;;;;;;10.15;7.95;;;;;;;15.48;72.02;96043.34;5046711;28;20783;-59
2023/04/21 11:24:46;;;;;;;7.93;7.35;;;;;;;15.24;70.95;96044.47;5046292;28;20213;-57